Time;durP1;ratioP1;P1;durP2;ratioP2;P2;SDS_P1;SDS_P2;PMS_P1;PMS_P2;Temp;Humidity;BMP_temperature;BMP_pressure;BME280_temperature;BME280_humidity;BME280_pressure;Samples;Min_cycle;Max_cycle;Signal;HPM_P1;HPM_P2
2021/12/05 00:24:18;;;;;;;0.95;0.70;;;5.50;82.10;;;;;;5039958;28;19913;-67
2021/12/05 00:26:51;;;;;;;2.17;1.60;;;5.50;81.70;;;;;;5039522;28;20022;-68
2021/12/05 00:29:26;;;;;;;1.55;0.85;;;5.50;81.90;;;;;;5042371;28;20025;-68
2021/12/05 00:51:43;;;;;;;2.40;1.55;;;5.50;82.30;;;;;;5039773;28;20140;-68
2021/12/05 01:11:58;;;;;;;1.55;1.13;;;5.20;82.10;;;;;;5034454;28;20474;-67
2021/12/05 01:14:30;;;;;;;2.90;1.40;;;5.20;82.20;;;;;;5034129;28;20037;-67
2021/12/05 01:16:57;;;;;;;2.75;1.35;;;5.20;82.30;;;;;;5035246;28;20041;-67
2021/12/05 01:19:25;;;;;;;1.38;1.27;;;5.20;82.30;;;;;;5036437;28;20512;-67
2021/12/05 01:21:54;;;;;;;1.42;1.30;;;5.20;82.30;;;;;;5036488;28;20120;-67
2021/12/05 01:32:42;;;;;;;1.33;1.02;;;5.20;82.10;;;;;;5033859;28;20038;-67
2021/12/05 01:35:23;;;;;;;3.53;1.10;;;5.20;82.00;;;;;;5036284;28;20035;-67
2021/12/05 01:59:10;;;;;;;3.35;1.17;;;5.10;81.60;;;;;;5034951;28;20252;-67
2021/12/05 02:42:48;;;;;;;2.78;0.88;;;4.60;81.60;;;;;;5032218;28;20041;-68
2021/12/05 02:45:14;;;;;;;;;;;4.60;81.70;;;;;;5033715;28;20029;-68
2021/12/05 02:47:47;;;;;;;1.25;0.70;;;4.60;81.90;;;;;;5033632;28;19924;-67
2021/12/05 02:50:14;;;;;;;1.65;0.63;;;4.60;81.60;;;;;;5035696;28;20033;-65
2021/12/05 02:52:41;;;;;;;2.47;0.88;;;4.60;81.70;;;;;;5037382;28;20041;-68
2021/12/05 02:55:11;;;;;;;2.28;0.80;;;4.60;81.80;;;;;;5033492;28;20112;-68
2021/12/05 03:00:21;;;;;;;3.65;0.90;;;4.60;81.80;;;;;;5034768;28;20040;-67
2021/12/05 03:02:50;;;;;;;1.00;0.70;;;4.60;81.80;;;;;;5033941;28;20041;-68
2021/12/05 03:05:18;;;;;;;1.55;0.70;;;4.60;81.80;;;;;;5033106;28;20566;-67
2021/12/05 03:07:47;;;;;;;1.77;0.77;;;4.60;81.80;;;;;;5034894;28;20128;-68
2021/12/05 03:10:15;;;;;;;2.45;0.70;;;4.60;81.80;;;;;;5037110;28;20523;-67
2021/12/05 03:12:43;;;;;;;2.45;0.70;;;4.50;81.80;;;;;;5030680;28;20037;-68
2021/12/05 03:15:12;;;;;;;1.95;0.85;;;4.50;81.70;;;;;;5030539;28;20029;-67
2021/12/05 03:17:37;;;;;;;3.33;0.90;;;4.50;81.80;;;;;;5032971;28;20116;-67
2021/12/05 03:20:05;;;;;;;1.58;0.80;;;4.50;81.80;;;;;;5035187;28;20148;-68
2021/12/05 03:22:31;;;;;;;2.30;0.70;;;4.50;81.80;;;;;;5034186;28;20668;-66
2021/12/05 03:24:56;;;;;;;2.08;0.82;;;4.50;82.00;;;;;;5034388;28;20065;-66
2021/12/05 03:27:22;;;;;;;2.92;0.70;;;4.50;81.90;;;;;;5034355;28;20037;-67
2021/12/05 03:29:48;;;;;;;1.83;0.73;;;4.50;81.80;;;;;;5034886;28;20032;-67
2021/12/05 03:32:14;;;;;;;2.65;1.00;;;4.50;81.80;;;;;;5033642;28;20044;-68
2021/12/05 03:34:39;;;;;;;1.15;0.60;;;4.50;81.80;;;;;;5033600;28;20140;-68
2021/12/05 03:37:06;;;;;;;3.25;0.77;;;4.50;81.70;;;;;;5031403;28;20039;-67
2021/12/05 03:39:32;;;;;;;3.90;0.80;;;4.50;81.70;;;;;;5034461;28;20032;-67
2021/12/05 03:41:58;;;;;;;1.70;0.70;;;4.50;81.80;;;;;;5035247;28;20037;-68
2021/12/05 03:44:28;;;;;;;2.20;0.85;;;4.50;81.80;;;;;;5035700;28;20112;-66
2021/12/05 03:46:55;;;;;;;1.92;0.98;;;4.50;81.80;;;;;;5033215;28;20109;-66
2021/12/05 03:49:22;;;;;;;2.90;0.80;;;4.50;81.80;;;;;;5032172;28;20028;-67
2021/12/05 03:51:56;;;;;;;4.40;1.27;;;4.50;81.80;;;;;;5034758;28;20040;-67
2021/12/05 03:54:22;;;;;;;2.13;0.90;;;4.50;82.00;;;;;;5034106;28;20122;-67
2021/12/05 03:56:49;;;;;;;2.88;1.00;;;4.40;81.90;;;;;;5032511;28;20049;-67
2021/12/05 03:59:16;;;;;;;3.97;0.98;;;4.40;82.00;;;;;;5035360;28;20148;-67
2021/12/05 04:01:42;;;;;;;2.80;0.82;;;4.40;82.00;;;;;;5034487;28;20048;-68
2021/12/05 04:04:09;;;;;;;2.70;0.98;;;4.40;82.00;;;;;;5033555;28;20034;-66
2021/12/05 04:06:36;;;;;;;2.03;1.00;;;4.40;82.90;;;;;;5033131;28;20037;-68
2021/12/05 04:09:06;;;;;;;5.45;1.02;;;4.40;82.10;;;;;;5035127;28;20041;-67
2021/12/05 04:11:37;;;;;;;1.92;1.40;;;4.40;82.10;;;;;;5032726;28;20255;-67
2021/12/05 04:14:09;;;;;;;2.10;1.00;;;4.40;82.10;;;;;;5032399;28;20029;-66
2021/12/05 04:16:35;;;;;;;3.70;1.30;;;4.40;82.30;;;;;;5033142;28;20139;-67
2021/12/05 04:19:02;;;;;;;2.95;1.10;;;4.40;82.30;;;;;;5035801;28;20094;-67
2021/12/05 04:21:29;;;;;;;3.92;1.27;;;4.40;82.20;;;;;;5034173;28;20033;-67
2021/12/05 04:23:57;;;;;;;4.18;1.25;;;4.40;82.30;;;;;;5035854;28;20563;-67
2021/12/05 04:26:24;;;;;;;4.13;1.35;;;4.50;82.40;;;;;;5037506;28;20029;-67
2021/12/05 04:28:51;;;;;;;3.45;1.00;;;4.40;82.40;;;;;;5036709;28;20037;-65
2021/12/05 04:31:20;;;;;;;2.30;0.98;;;4.40;82.40;;;;;;5038333;28;20053;-68
2021/12/05 04:33:46;;;;;;;3.53;0.90;;;4.40;82.50;;;;;;5037222;28;20029;-67
2021/12/05 04:36:12;;;;;;;2.78;1.00;;;4.40;82.50;;;;;;5035830;28;20102;-67
2021/12/05 04:38:38;;;;;;;2.47;0.93;;;4.40;82.40;;;;;;5035660;28;20707;-67
2021/12/05 04:41:05;;;;;;;4.50;1.10;;;4.50;82.50;;;;;;5037828;28;20122;-67
2021/12/05 04:43:37;;;;;;;4.15;1.00;;;4.50;82.50;;;;;;5039987;28;20044;-67
2021/12/05 04:46:11;;;;;;;2.40;1.10;;;4.50;82.50;;;;;;5032168;28;20037;-66
2021/12/05 04:48:38;;;;;;;4.07;1.80;;;4.50;82.50;;;;;;5035718;28;20037;-67
2021/12/05 04:51:05;;;;;;;5.97;2.20;;;4.40;82.40;;;;;;5039290;28;20037;-67
2021/12/05 04:53:31;;;;;;;6.38;2.40;;;4.50;82.50;;;;;;5036310;28;20504;-68
2021/12/05 04:55:58;;;;;;;9.02;4.93;;;4.40;82.40;;;;;;5037833;28;20187;-67
2021/12/05 04:58:25;;;;;;;4.90;2.25;;;4.40;82.50;;;;;;5037134;28;20030;-67
2021/12/05 05:00:53;;;;;;;4.55;2.33;;;4.40;82.50;;;;;;5037178;28;20037;-68
2021/12/05 05:03:19;;;;;;;3.10;1.67;;;4.40;82.40;;;;;;5037735;28;20048;-67
2021/12/05 05:05:51;;;;;;;7.18;5.43;;;4.40;82.40;;;;;;5036003;28;20063;-68
2021/12/05 05:08:19;;;;;;;5.00;2.20;;;4.50;82.50;;;;;;5035721;28;20032;-67
2021/12/05 05:10:45;;;;;;;15.30;11.40;;;4.40;82.50;;;;;;5048464;28;20126;-67
2021/12/05 05:13:10;;;;;;;8.68;3.20;;;4.40;82.40;;;;;;5036539;28;20670;-67
2021/12/05 05:15:36;;;;;;;3.72;2.53;;;4.50;82.50;;;;;;5033978;28;20060;-67
2021/12/05 05:18:04;;;;;;;3.78;1.63;;;4.50;82.50;;;;;;5035863;28;20036;-67
2021/12/05 05:20:47;;;;;;;6.20;2.75;;;4.50;82.50;;;;;;5038386;28;20037;-68
2021/12/05 05:29:22;;;;;;;3.75;0.90;;;4.60;82.40;;;;;;5035664;28;20040;-68
2021/12/05 05:39:54;;;;;;;3.50;1.15;;;4.50;82.00;;;;;;5038576;28;20040;-68
2021/12/05 05:49:58;;;;;;;3.65;1.75;;;4.60;82.10;;;;;;5038306;28;20167;-67
2021/12/05 05:52:28;;;;;;;4.82;1.80;;;4.50;82.10;;;;;;5033514;28;20033;-68
2021/12/05 05:54:57;;;;;;;3.90;1.60;;;4.50;82.10;;;;;;5034005;28;20546;-68
2021/12/05 05:57:33;;;;;;;4.57;1.00;;;4.50;82.20;;;;;;5035344;28;20417;-67
2021/12/05 06:05:15;;;;;;;2.90;0.70;;;4.50;82.10;;;;;;5036519;28;20557;-67
2021/12/05 06:07:43;;;;;;;3.47;0.88;;;4.50;82.10;;;;;;5035513;28;20029;-68
2021/12/05 06:10:11;;;;;;;1.92;1.45;;;4.50;82.20;;;;;;5037782;28;20038;-67
2021/12/05 06:12:39;;;;;;;1.92;1.25;;;4.50;82.20;;;;;;5036738;28;20444;-68
2021/12/05 06:15:08;;;;;;;1.52;1.13;;;4.50;82.10;;;;;;5038960;28;20033;-69
2021/12/05 06:17:34;;;;;;;4.65;2.08;;;4.50;82.10;;;;;;5037533;28;20037;-68
2021/12/05 06:20:00;;;;;;;1.83;0.75;;;4.50;82.00;;;;;;5036831;28;20181;-68
2021/12/05 06:22:26;;;;;;;2.30;1.67;;;4.50;82.00;;;;;;5036846;28;20532;-67
2021/12/05 06:24:52;;;;;;;2.00;1.00;;;4.50;82.10;;;;;;5038695;28;20033;-68
2021/12/05 06:27:18;;;;;;;4.70;1.48;;;4.50;82.10;;;;;;5034657;28;20041;-68
2021/12/05 06:29:47;;;;;;;2.80;1.20;;;4.50;82.00;;;;;;5035725;28;20029;-68
2021/12/05 06:47:55;;;;;;;1.45;0.70;;;4.60;81.80;;;;;;5035687;28;20086;-66
2021/12/05 06:50:20;;;;;;;4.57;1.25;;;4.60;81.80;;;;;;5035805;28;20033;-67
2021/12/05 06:52:46;;;;;;;1.45;0.80;;;4.60;82.50;;;;;;5035909;28;20029;-67
2021/12/05 06:55:14;;;;;;;1.67;1.13;;;4.50;81.60;;;;;;5036217;28;20033;-67
2021/12/05 06:57:41;;;;;;;3.60;1.00;;;4.50;81.60;;;;;;5037412;28;20072;-67
2021/12/05 07:00:13;;;;;;;2.95;1.00;;;4.60;81.60;;;;;;5035650;28;20632;-67
2021/12/05 07:02:38;;;;;;;2.58;0.88;;;4.50;81.60;;;;;;5031704;28;20037;-68
2021/12/05 07:05:40;;;;;;;2.45;1.10;;;4.50;81.60;;;;;;5036081;28;20091;-67
2021/12/05 07:08:07;;;;;;;1.80;0.90;;;4.50;81.60;;;;;;5038167;28;20120;-67
2021/12/05 07:10:41;;;;;;;3.25;0.95;;;4.40;81.60;;;;;;5035554;28;20048;-67
2021/12/05 07:18:45;;;;;;;8.80;4.32;;;4.40;81.80;;;;;;5020534;28;20063;-67
2021/12/05 07:24:06;;;;;;;8.57;3.63;;;4.30;81.80;;;;;;5038426;28;20401;-67
2021/12/05 07:26:43;;;;;;;5.50;2.58;;;4.30;81.80;;;;;;5037134;28;20112;-67
2021/12/05 07:43:05;;;;;;;8.48;3.45;;;4.30;82.10;;;;;;5037894;28;20033;-67
2021/12/05 07:45:41;;;;;;;2.83;1.63;;;4.30;82.20;;;;;;5029444;28;20144;-67
2021/12/05 07:48:14;;;;;;;2.80;1.60;;;4.20;82.10;;;;;;5030772;28;20028;-67
2021/12/05 07:51:10;;;;;;;3.50;1.73;;;4.30;82.30;;;;;;5034101;28;20071;-67
2021/12/05 07:53:46;;;;;;;2.20;1.60;;;4.30;82.50;;;;;;5029385;28;20104;-67
2021/12/05 07:56:18;;;;;;;6.20;2.95;;;4.30;82.50;;;;;;5034464;28;20075;-68
2021/12/05 07:59:40;;;;;;;4.72;1.65;;;4.30;82.40;;;;;;5027308;28;20052;-68
2021/12/05 08:15:20;;;;;;;3.45;1.48;;;4.50;82.10;;;;;;5034277;28;20103;-67
2021/12/05 08:17:53;;;;;;;5.45;2.97;;;4.50;82.10;;;;;;5038642;28;20448;-68
2021/12/05 08:20:30;;;;;;;6.53;2.90;;;4.50;82.00;;;;;;5036739;28;20039;-68
2021/12/05 08:22:56;;;;;;;3.58;1.80;;;4.50;82.10;;;;;;5031305;28;20033;-67
2021/12/05 08:25:26;;;;;;;3.80;1.70;;;4.50;82.10;;;;;;5029802;28;20104;-66
2021/12/05 08:27:58;;;;;;;3.55;2.13;;;4.50;83.00;;;;;;5030876;28;20082;-67
2021/12/05 08:30:36;;;;;;;6.85;3.30;;;4.40;82.20;;;;;;5034680;28;20072;-67
2021/12/05 09:20:32;;;;;;;3.45;1.92;;;4.70;82.40;;;;;;5033427;28;20039;-67
2021/12/05 09:53:11;;;;;;;3.13;1.42;;;5.10;82.10;;;;;;5037360;28;20457;-68
2021/12/05 10:09:05;;;;;;;4.93;1.52;;;5.40;81.60;;;;;;5038695;28;20055;-67
2021/12/05 10:16:53;;;;;;;2.30;1.40;;;5.50;81.20;;;;;;5035486;28;20068;-68
2021/12/05 10:36:00;;;;;;;;;;;5.80;80.00;;;;;;5039047;28;20049;-68
2021/12/05 10:38:46;;;;;;;4.07;2.00;;;5.80;79.80;;;;;;5038148;28;19932;-67
2021/12/05 10:43:47;;;;;;;2.80;2.13;;;5.80;79.60;;;;;;5038349;28;20034;-67
2021/12/05 10:46:15;;;;;;;5.30;2.10;;;5.90;79.90;;;;;;5038940;28;20029;-68
2021/12/05 10:48:50;;;;;;;3.33;1.33;;;5.90;79.80;;;;;;5040349;28;20040;-67
2021/12/05 10:51:27;;;;;;;5.68;2.20;;;6.00;79.50;;;;;;5038923;28;20040;-67
2021/12/05 10:53:56;;;;;;;5.13;2.50;;;6.00;79.20;;;;;;5037445;28;20045;-67
2021/12/05 10:56:31;;;;;;;5.05;2.22;;;5.90;79.30;;;;;;5037572;28;20036;-68
2021/12/05 10:58:59;;;;;;;5.07;1.77;;;6.00;78.80;;;;;;5037226;28;20044;-68
2021/12/05 11:01:31;;;;;;;5.03;1.58;;;6.00;79.00;;;;;;5037791;28;20049;-67
2021/12/05 11:04:28;;;;;;;6.93;2.88;;;6.10;78.80;;;;;;5038300;28;20045;-67
2021/12/05 11:07:10;;;;;;;4.30;2.15;;;6.10;78.80;;;;;;5033878;28;20041;-68
2021/12/05 11:09:44;;;;;;;6.22;3.00;;;6.10;78.80;;;;;;5038087;28;20029;-67
2021/12/05 11:12:20;;;;;;;9.02;3.65;;;6.10;78.70;;;;;;5034641;28;20090;-68
2021/12/05 11:14:51;;;;;;;4.72;2.17;;;6.20;78.60;;;;;;5036696;28;20029;-65
2021/12/05 11:17:28;;;;;;;1.77;0.93;;;6.20;78.70;;;;;;5038959;28;20373;-68
2021/12/05 11:20:11;;;;;;;3.95;0.80;;;6.30;78.60;;;;;;5037958;28;20037;-65
2021/12/05 11:22:55;;;;;;;2.80;0.90;;;6.30;78.80;;;;;;5038524;28;20037;-66
2021/12/05 11:25:27;;;;;;;3.08;0.85;;;6.40;78.60;;;;;;5038764;28;20033;-66
2021/12/05 11:27:54;;;;;;;2.20;0.90;;;6.40;78.20;;;;;;5038368;28;20111;-67
2021/12/05 11:30:30;;;;;;;2.38;1.00;;;6.50;78.50;;;;;;5038157;28;20091;-66
2021/12/05 11:33:01;;;;;;;3.50;1.60;;;6.50;78.40;;;;;;5038616;28;20113;-66
2021/12/05 11:35:30;;;;;;;1.73;0.98;;;6.50;78.30;;;;;;5041757;28;20048;-66
2021/12/05 11:37:55;;;;;;;4.15;1.60;;;6.60;78.10;;;;;;5042876;28;20036;-67
2021/12/05 11:40:23;;;;;;;2.20;1.50;;;6.60;77.40;;;;;;5042355;28;20041;-66
2021/12/05 11:43:03;;;;;;;4.25;1.95;;;6.70;77.70;;;;;;5041633;28;22961;-67
2021/12/05 11:45:47;;;;;;;5.38;1.65;;;6.70;77.10;;;;;;5041316;28;20496;-66
2021/12/05 11:48:21;;;;;;;3.75;1.20;;;6.70;77.40;;;;;;5042163;28;20041;-67
2021/12/05 11:50:48;;;;;;;6.07;1.37;;;6.80;76.80;;;;;;5042078;28;20045;-66
2021/12/05 11:53:14;;;;;;;1.75;0.90;;;6.80;76.60;;;;;;5041750;28;21907;-66
2021/12/05 11:55:40;;;;;;;4.82;1.20;;;6.80;76.40;;;;;;5041488;28;20504;-66
2021/12/05 11:58:15;;;;;;;4.78;1.35;;;6.80;75.40;;;;;;5042124;28;20044;-66
2021/12/05 12:00:41;;;;;;;4.05;1.38;;;6.80;74.20;;;;;;5042294;28;20104;-65
2021/12/05 12:03:07;;;;;;;5.95;2.30;;;6.80;73.50;;;;;;5041760;28;20333;-66
2021/12/05 12:05:37;;;;;;;3.67;1.55;;;6.80;73.50;;;;;;5041869;28;20021;-66
2021/12/05 12:08:07;;;;;;;3.47;1.10;;;6.70;73.60;;;;;;5040431;28;20034;-67
2021/12/05 12:10:44;;;;;;;2.90;1.17;;;6.70;73.60;;;;;;5040632;28;20040;-67
2021/12/05 12:13:12;;;;;;;3.17;1.23;;;6.60;74.00;;;;;;5042833;28;20500;-67
2021/12/05 12:15:40;;;;;;;2.50;1.27;;;6.60;74.10;;;;;;5039975;28;20052;-67
2021/12/05 12:18:15;;;;;;;4.18;1.20;;;6.60;74.50;;;;;;5040376;28;20525;-67
2021/12/05 12:20:45;;;;;;;1.90;0.93;;;6.60;74.60;;;;;;5039597;28;20041;-67
2021/12/05 12:23:12;;;;;;;2.60;1.10;;;6.60;74.70;;;;;;5039591;28;20063;-67
2021/12/05 12:25:39;;;;;;;2.03;0.95;;;6.60;75.50;;;;;;5041119;28;20038;-67
2021/12/05 12:28:07;;;;;;;3.15;0.98;;;6.60;74.50;;;;;;5040072;28;20124;-67
2021/12/05 12:30:37;;;;;;;3.88;1.10;;;6.60;75.20;;;;;;5041826;28;20033;-66
2021/12/05 12:33:13;;;;;;;2.75;0.90;;;6.60;74.10;;;;;;5042181;28;20040;-67
2021/12/05 12:35:41;;;;;;;1.85;1.00;;;6.60;73.40;;;;;;5040378;28;20053;-67
2021/12/05 12:38:17;;;;;;;5.15;0.90;;;6.70;74.20;;;;;;5040093;28;20523;-67
2021/12/05 12:41:12;;;;;;;2.92;0.70;;;6.70;73.70;;;;;;5040513;28;20421;-67
2021/12/05 12:43:56;;;;;;;2.13;1.00;;;6.70;73.00;;;;;;5039473;28;20036;-67
2021/12/05 12:46:24;;;;;;;2.90;1.13;;;6.70;72.50;;;;;;5040577;28;20124;-67
2021/12/05 12:49:16;;;;;;;1.00;0.82;;;6.80;72.90;;;;;;5041390;28;20539;-66
2021/12/05 12:52:05;;;;;;;2.65;0.80;;;6.80;70.20;;;;;;5034007;28;20048;-66
2021/12/05 12:54:40;;;;;;;3.67;1.13;;;6.80;70.40;;;;;;5040913;28;20570;-66
2021/12/05 12:57:19;;;;;;;2.50;1.10;;;6.80;71.30;;;;;;5039934;28;20056;-66
2021/12/05 13:00:04;;;;;;;3.28;1.27;;;6.80;71.90;;;;;;5040212;28;20212;-67
2021/12/05 13:05:56;;;;;;;3.30;1.20;;;6.90;71.70;;;;;;5039594;28;20512;-67
2021/12/05 13:11:22;;;;;;;5.72;1.88;;;6.90;71.10;;;;;;5038221;28;20056;-67
2021/12/05 13:14:06;;;;;;;2.08;1.15;;;6.90;70.80;;;;;;5042407;28;20587;-66
2021/12/05 13:16:36;;;;;;;2.95;1.10;;;6.90;71.10;;;;;;5038500;28;20447;-67
2021/12/05 13:19:26;;;;;;;2.28;1.30;;;6.90;72.00;;;;;;5040732;28;20040;-66
2021/12/05 13:21:54;;;;;;;2.70;1.23;;;6.90;72.30;;;;;;5038931;28;20037;-66
2021/12/05 13:24:29;;;;;;;4.85;1.67;;;6.90;72.30;;;;;;5039865;28;20421;-67
2021/12/05 13:27:03;;;;;;;15.65;8.45;;;7.00;72.20;;;;;;5045062;28;20053;-68
2021/12/05 13:29:46;;;;;;;3.72;2.08;;;7.00;71.70;;;;;;5040294;28;20034;-67
2021/12/05 13:32:24;;;;;;;3.85;1.60;;;7.00;71.40;;;;;;5038277;28;20044;-66
2021/12/05 13:34:51;;;;;;;3.17;1.52;;;7.00;71.10;;;;;;5038584;28;20036;-67
2021/12/05 13:37:31;;;;;;;2.85;1.60;;;7.00;71.60;;;;;;5038934;28;20033;-66
2021/12/05 13:40:06;;;;;;;2.50;1.80;;;6.90;71.50;;;;;;5040341;28;20045;-67
2021/12/05 13:42:36;;;;;;;2.83;1.30;;;7.00;71.00;;;;;;5038060;28;20037;-66
2021/12/05 13:45:07;;;;;;;3.65;1.27;;;7.00;71.50;;;;;;5040241;28;20057;-67
2021/12/05 13:47:39;;;;;;;2.35;1.20;;;6.90;71.40;;;;;;5039393;28;20127;-65
2021/12/05 13:50:17;;;;;;;3.60;1.40;;;6.90;71.40;;;;;;5039968;28;20048;-66
2021/12/05 13:52:55;;;;;;;2.90;2.10;;;6.90;70.80;;;;;;5039431;28;20396;-66
2021/12/05 13:55:47;;;;;;;3.03;1.88;;;6.90;70.80;;;;;;5040217;28;20036;-67
2021/12/05 13:58:35;;;;;;;8.82;3.95;;;6.90;70.90;;;;;;5038819;28;20094;-67
2021/12/05 14:01:00;;;;;;;6.72;4.05;;;6.90;71.40;;;;;;5039214;28;20033;-66
2021/12/05 14:03:45;;;;;;;4.43;2.72;;;6.90;71.40;;;;;;5039792;28;20034;-67
2021/12/05 14:06:41;;;;;;;5.63;4.03;;;6.90;70.60;;;;;;5038012;28;20041;-66
2021/12/05 14:09:11;;;;;;;4.32;3.13;;;6.90;70.70;;;;;;5038730;28;20036;-67
2021/12/05 14:11:43;;;;;;;4.22;2.63;;;6.90;71.60;;;;;;5037470;28;20047;-67
2021/12/05 14:14:10;;;;;;;5.18;2.80;;;6.90;71.30;;;;;;5039248;28;20040;-67
2021/12/05 14:16:42;;;;;;;4.65;2.30;;;6.90;71.50;;;;;;5038004;28;20040;-67
2021/12/05 14:19:11;;;;;;;6.50;3.10;;;6.90;71.20;;;;;;5038056;28;20039;-66
2021/12/05 14:21:46;;;;;;;6.50;4.10;;;6.90;71.40;;;;;;5038103;28;20030;-67
2021/12/05 14:24:13;;;;;;;6.75;3.72;;;6.90;71.40;;;;;;5038862;28;20072;-67
2021/12/05 14:26:40;;;;;;;5.32;2.65;;;6.90;71.60;;;;;;5038446;28;20052;-66
2021/12/05 14:29:16;;;;;;;6.35;4.03;;;6.90;71.60;;;;;;5039219;28;20037;-66
2021/12/05 14:31:49;;;;;;;6.22;3.28;;;6.90;71.60;;;;;;5038847;28;20064;-66
2021/12/05 14:34:16;;;;;;;5.63;2.63;;;6.90;71.80;;;;;;5039458;28;20075;-66
2021/12/05 14:36:46;;;;;;;4.22;2.33;;;6.90;72.00;;;;;;5035945;28;20059;-66
2021/12/05 14:39:20;;;;;;;3.80;2.50;;;6.90;71.80;;;;;;5038019;28;20500;-66
2021/12/05 14:41:51;;;;;;;4.28;2.10;;;6.90;72.00;;;;;;5036469;28;20048;-66
2021/12/05 14:44:18;;;;;;;2.75;2.20;;;6.90;72.10;;;;;;5037043;28;20385;-67
2021/12/05 14:47:08;;;;;;;4.20;2.40;;;6.90;72.30;;;;;;5036790;28;20045;-67
2021/12/05 14:49:41;;;;;;;3.83;1.75;;;6.90;72.30;;;;;;5039251;28;20029;-67
2021/12/05 14:52:15;;;;;;;2.72;1.75;;;6.90;72.10;;;;;;5037625;28;20076;-68
2021/12/05 14:54:41;;;;;;;2.13;1.53;;;6.90;71.60;;;;;;5039182;28;20412;-67
2021/12/05 14:57:16;;;;;;;1.45;1.10;;;6.90;72.00;;;;;;5039404;28;20043;-67
2021/12/05 14:59:45;;;;;;;3.17;1.50;;;6.90;71.80;;;;;;5038111;28;20112;-66
2021/12/05 15:02:11;;;;;;;5.55;3.15;;;6.90;72.00;;;;;;5039762;28;20137;-67
2021/12/05 15:04:44;;;;;;;4.45;3.00;;;6.90;72.10;;;;;;5038643;28;20033;-67
2021/12/05 15:07:10;;;;;;;5.03;2.92;;;6.80;71.80;;;;;;5037951;28;20030;-68
2021/12/05 15:09:42;;;;;;;4.35;2.40;;;6.80;71.90;;;;;;5037179;28;20501;-67
2021/12/05 15:12:12;;;;;;;3.38;2.10;;;6.90;71.80;;;;;;5037784;28;20128;-67
2021/12/05 15:14:42;;;;;;;3.88;2.50;;;6.80;71.70;;;;;;5039045;28;20069;-67
2021/12/05 15:17:17;;;;;;;2.92;1.80;;;6.80;71.60;;;;;;5038464;28;20520;-67
2021/12/05 15:19:49;;;;;;;4.15;3.40;;;6.80;71.50;;;;;;5037813;28;20032;-68
2021/12/05 15:22:15;;;;;;;5.68;2.72;;;6.80;71.50;;;;;;5037708;28;20044;-67
2021/12/05 15:24:51;;;;;;;4.68;2.63;;;6.70;71.80;;;;;;5036389;28;20083;-67
2021/12/05 15:27:19;;;;;;;3.92;2.70;;;6.80;71.50;;;;;;5037654;28;20543;-67
2021/12/05 15:29:47;;;;;;;4.90;3.50;;;6.70;71.70;;;;;;5038717;28;20452;-67
2021/12/05 15:32:19;;;;;;;5.25;3.08;;;6.70;71.70;;;;;;5037937;28;20052;-67
2021/12/05 15:34:54;;;;;;;6.95;3.97;;;6.70;71.50;;;;;;5038286;28;20067;-67
2021/12/05 15:37:20;;;;;;;5.97;3.97;;;6.70;71.60;;;;;;5038101;28;20446;-67
2021/12/05 15:39:48;;;;;;;5.60;3.50;;;6.70;71.80;;;;;;5037546;28;20048;-67
2021/12/05 15:42:30;;;;;;;8.43;3.88;;;6.70;71.80;;;;;;5037264;28;20034;-67
2021/12/05 15:44:57;;;;;;;8.13;2.92;;;6.60;71.50;;;;;;5038257;28;20047;-67
2021/12/05 15:47:28;;;;;;;5.13;2.70;;;6.70;72.00;;;;;;5038309;28;20049;-67
2021/12/05 15:50:08;;;;;;;7.55;3.15;;;6.70;72.00;;;;;;5038406;28;20146;-67
2021/12/05 15:52:50;;;;;;;6.60;4.28;;;6.60;71.90;;;;;;5038334;28;21080;-66
2021/12/05 15:55:18;;;;;;;4.35;2.80;;;6.60;71.90;;;;;;5038327;28;20048;-67
2021/12/05 15:57:48;;;;;;;4.18;3.13;;;6.60;72.10;;;;;;5037036;28;20036;-66
2021/12/05 16:00:31;;;;;;;6.60;3.78;;;6.60;72.30;;;;;;5035173;28;20033;-66
2021/12/05 16:03:05;;;;;;;7.60;4.38;;;6.60;72.20;;;;;;5035952;28;20411;-67
2021/12/05 16:05:33;;;;;;;7.55;4.65;;;6.60;72.20;;;;;;5036614;28;20105;-65
2021/12/05 16:08:06;;;;;;;6.07;3.85;;;6.50;72.20;;;;;;5037013;28;20037;-67
2021/12/05 16:10:35;;;;;;;5.85;3.67;;;6.50;72.10;;;;;;5037123;28;20037;-67
2021/12/05 16:13:13;;;;;;;5.82;3.75;;;6.40;72.10;;;;;;5036310;28;20060;-67
2021/12/05 16:15:41;;;;;;;5.32;3.55;;;6.40;71.90;;;;;;5037707;28;20040;-68
2021/12/05 16:18:08;;;;;;;5.18;3.28;;;6.30;72.10;;;;;;5038276;28;20021;-68
2021/12/05 16:20:45;;;;;;;6.50;3.70;;;6.30;72.30;;;;;;5041036;28;20505;-67
2021/12/05 16:23:16;;;;;;;6.35;3.80;;;6.20;72.30;;;;;;5041302;28;20048;-66
2021/12/05 16:26:03;;;;;;;6.45;3.85;;;6.10;72.60;;;;;;5041318;28;20427;-68
2021/12/05 16:28:48;;;;;;;9.70;4.30;;;6.10;72.90;;;;;;5040579;28;20512;-67
2021/12/05 16:31:17;;;;;;;7.88;4.35;;;6.00;72.60;;;;;;5041194;28;20044;-68
2021/12/05 16:33:46;;;;;;;7.07;4.43;;;6.00;72.90;;;;;;5040694;28;20486;-67
2021/12/05 16:36:12;;;;;;;9.98;5.50;;;6.00;73.00;;;;;;5041921;28;20030;-67
2021/12/05 16:38:44;;;;;;;10.00;5.78;;;6.00;73.10;;;;;;5041209;28;20033;-67
2021/12/05 16:41:30;;;;;;;10.70;6.45;;;5.90;73.10;;;;;;5040362;28;20594;-68
2021/12/05 16:44:04;;;;;;;12.45;7.53;;;5.90;73.10;;;;;;5040881;28;20041;-67
2021/12/05 16:46:42;;;;;;;16.83;7.97;;;5.80;73.30;;;;;;5040455;28;20053;-67
2021/12/05 16:49:13;;;;;;;14.73;8.68;;;5.80;73.40;;;;;;5041971;28;20043;-68
2021/12/05 16:51:49;;;;;;;14.82;8.20;;;5.80;73.50;;;;;;5040564;28;20037;-68
2021/12/05 16:54:33;;;;;;;11.98;7.53;;;5.70;73.40;;;;;;5041340;28;20370;-67
2021/12/05 16:57:10;;;;;;;10.40;6.00;;;5.70;73.60;;;;;;5054286;28;20106;-67
2021/12/05 16:59:44;;;;;;;15.50;8.40;;;5.70;73.70;;;;;;5041212;28;20034;-68
2021/12/05 17:02:31;;;;;;;17.35;9.70;;;5.60;73.70;;;;;;5038922;28;20084;-68
2021/12/05 17:05:16;;;;;;;14.73;6.88;;;5.60;73.80;;;;;;5042274;28;20042;-67
2021/12/05 17:07:55;;;;;;;10.15;4.88;;;5.50;73.80;;;;;;5041321;28;20047;-68
2021/12/05 17:10:20;;;;;;;6.60;4.32;;;5.40;74.00;;;;;;5042119;28;20040;-67
2021/12/05 17:12:48;;;;;;;8.23;4.78;;;5.30;74.20;;;;;;5041248;28;20044;-67
2021/12/05 17:15:22;;;;;;;6.50;4.35;;;5.30;74.50;;;;;;5039479;28;20075;-67
2021/12/05 17:17:50;;;;;;;7.65;5.07;;;5.30;74.90;;;;;;5041119;28;20060;-68
2021/12/05 17:20:32;;;;;;;8.93;5.03;;;5.20;74.90;;;;;;5041212;28;20061;-67
2021/12/05 17:23:06;;;;;;;8.23;4.38;;;5.20;75.10;;;;;;5038191;28;20029;-67
2021/12/05 17:25:42;;;;;;;5.88;4.00;;;5.10;75.00;;;;;;5040500;28;20037;-67
2021/12/05 17:28:29;;;;;;;6.55;4.90;;;5.10;75.30;;;;;;5054782;28;20033;-67
2021/12/05 17:30:58;;;;;;;7.28;4.88;;;5.10;75.50;;;;;;5041962;28;20558;-68
2021/12/05 17:33:29;;;;;;;8.43;5.97;;;5.10;75.50;;;;;;5042109;28;20037;-66
2021/12/05 17:35:55;;;;;;;11.15;5.30;;;5.10;75.30;;;;;;5040382;28;20033;-66
2021/12/05 17:38:35;;;;;;;8.40;5.53;;;5.10;75.30;;;;;;5038773;28;20037;-67
2021/12/05 17:41:01;;;;;;;7.60;4.38;;;5.10;75.10;;;;;;5039384;28;20508;-69
2021/12/05 17:43:27;;;;;;;6.32;4.20;;;5.10;75.10;;;;;;5039416;28;20094;-69
2021/12/05 17:45:52;;;;;;;5.68;4.00;;;5.00;74.90;;;;;;5036979;28;20037;-69
2021/12/05 17:48:18;;;;;;;5.25;3.08;;;4.90;75.70;;;;;;5038773;28;20048;-68
2021/12/05 17:50:44;;;;;;;8.38;3.30;;;4.90;74.80;;;;;;5039991;28;20049;-70
2021/12/05 17:53:10;;;;;;;4.72;3.50;;;4.90;74.80;;;;;;5039392;28;20037;-68
2021/12/05 17:55:43;;;;;;;7.30;3.47;;;4.90;75.10;;;;;;5039733;28;20048;-69
2021/12/05 17:58:22;;;;;;;6.28;3.70;;;4.80;75.10;;;;;;5040540;28;20037;-70
2021/12/05 18:02:37;;;;;;;5.40;3.88;;;4.80;75.20;;;;;;5039283;28;20033;-68
2021/12/05 18:03:44;;;;;;;11.15;6.85;;;4.80;75.30;;;;;;5040727;28;20040;-69
2021/12/05 18:06:10;;;;;;;16.35;8.65;;;4.80;75.30;;;;;;5039354;28;20124;-69
2021/12/05 18:08:35;;;;;;;11.73;6.85;;;4.80;75.30;;;;;;5039678;28;20025;-68
2021/12/05 18:11:08;;;;;;;12.02;7.93;;;4.70;75.50;;;;;;5040114;28;20041;-69
2021/12/05 18:13:36;;;;;;;13.63;8.27;;;4.70;75.70;;;;;;5039049;28;20067;-68
2021/12/05 18:16:12;;;;;;;17.00;10.50;;;4.60;75.90;;;;;;5038146;28;20051;-68
2021/12/05 18:18:38;;;;;;;18.83;10.32;;;4.70;76.20;;;;;;5039737;28;20041;-66
2021/12/05 18:21:08;;;;;;;18.52;10.77;;;4.70;76.40;;;;;;5039054;28;20475;-69
2021/12/05 18:23:36;;;;;;;18.00;10.88;;;4.70;76.60;;;;;;5038140;28;20047;-69
2021/12/05 18:26:04;;;;;;;20.00;11.55;;;4.70;76.50;;;;;;5039286;28;20037;-67
2021/12/05 18:28:30;;;;;;;22.08;12.18;;;4.70;76.50;;;;;;5039635;28;20049;-67
2021/12/05 18:30:55;;;;;;;22.67;11.65;;;4.70;76.60;;;;;;5038711;28;20037;-68
2021/12/05 18:33:25;;;;;;;19.50;11.75;;;4.70;76.70;;;;;;5034879;28;20040;-68
2021/12/05 18:35:52;;;;;;;23.10;13.85;;;4.70;76.70;;;;;;5038629;28;20037;-68
2021/12/05 18:38:21;;;;;;;24.42;13.30;;;4.70;76.70;;;;;;5037924;28;20039;-65
2021/12/05 18:40:50;;;;;;;29.70;15.88;;;4.70;76.70;;;;;;5038354;28;20117;-68
2021/12/05 18:43:20;;;;;;;25.27;14.52;;;4.70;76.80;;;;;;5036654;28;20183;-68
2021/12/05 18:45:46;;;;;;;28.55;16.58;;;4.60;76.70;;;;;;5038440;28;20110;-69
2021/12/05 18:48:12;;;;;;;23.58;14.57;;;4.60;76.90;;;;;;5038870;28;20087;-67
2021/12/05 18:50:44;;;;;;;29.15;16.60;;;4.60;77.10;;;;;;5038804;28;20513;-68
2021/12/05 18:53:16;;;;;;;28.30;17.40;;;4.60;77.20;;;;;;5038172;28;20040;-68